createdAt,value
2023-02-03T00:03:43.930Z,13.27
2023-02-03T00:08:46.418Z,13.77
2023-02-03T00:13:48.575Z,12.38
2023-02-03T00:18:51.191Z,13.32
2023-02-03T00:23:54.871Z,13.10
2023-02-03T00:28:59.331Z,12.57
2023-02-03T00:34:01.558Z,13.45
2023-02-03T00:39:03.705Z,14.18
2023-02-03T00:44:05.891Z,13.48
2023-02-03T00:49:08.156Z,11.48
2023-02-03T00:54:11.309Z,12.75
2023-02-03T00:59:13.511Z,12.35
2023-02-03T01:04:15.779Z,12.00
2023-02-03T01:09:17.984Z,12.52
2023-02-03T01:14:20.297Z,12.55
2023-02-03T01:19:22.616Z,10.02
2023-02-03T01:24:24.822Z,11.45
2023-02-03T01:29:27.071Z,12.10
2023-02-03T01:34:30.689Z,12.60
2023-02-03T01:39:34.462Z,13.65
2023-02-03T01:44:39.873Z,11.65
2023-02-03T01:49:45.353Z,10.95
2023-02-03T01:54:48.523Z,10.35
2023-02-03T01:59:51.251Z,9.20
2023-02-03T02:04:53.419Z,10.45
2023-02-03T02:09:56.234Z,9.98
2023-02-03T02:14:58.814Z,11.43
2023-02-03T02:20:21.707Z,9.73
2023-02-03T02:25:42.358Z,8.02
2023-02-03T02:30:47.704Z,8.77
2023-02-03T02:36:09.447Z,7.40
2023-02-03T02:41:18.064Z,9.48
2023-02-03T02:46:28.413Z,7.05
2023-02-03T02:51:31.754Z,8.27
2023-02-03T02:56:36.621Z,8.40
2023-02-03T03:01:41.536Z,8.77
2023-02-03T03:06:48.566Z,8.30
2023-02-03T03:11:52.955Z,8.13
2023-02-03T03:16:58.107Z,8.40
2023-02-03T03:22:02.983Z,7.43
2023-02-03T03:27:07.361Z,6.68
2023-02-03T03:32:10.030Z,7.03
2023-02-03T03:37:16.475Z,7.50
2023-02-03T03:42:28.389Z,7.70
2023-02-03T03:47:35.918Z,6.78
2023-02-03T03:52:39.368Z,7.18
2023-02-03T03:57:44.655Z,8.23
2023-02-03T04:02:49.535Z,9.00
2023-02-03T04:07:51.820Z,8.25
2023-02-03T04:12:53.994Z,8.07
2023-02-03T04:17:57.429Z,7.03
2023-02-03T04:23:00.356Z,7.90
2023-02-03T04:28:02.656Z,6.47
2023-02-03T04:33:04.818Z,7.20
2023-02-03T04:38:07.022Z,7.68
2023-02-03T04:43:09.334Z,7.95
2023-02-03T04:48:11.510Z,7.43
2023-02-03T04:53:15.698Z,9.63
2023-02-03T04:58:18.174Z,7.60
2023-02-03T05:03:20.439Z,6.68
2023-02-03T05:08:22.720Z,7.75
2023-02-03T05:13:24.917Z,7.57
2023-02-03T05:18:27.056Z,6.22
2023-02-03T05:23:29.279Z,7.05
2023-02-03T05:28:31.539Z,8.27
2023-02-03T05:33:33.898Z,7.05
2023-02-03T05:38:36.128Z,7.90
2023-02-03T05:43:38.442Z,7.20
2023-02-03T05:48:40.541Z,7.80
2023-02-03T05:53:42.684Z,8.02
2023-02-03T05:58:44.910Z,7.32
2023-02-03T06:03:47.509Z,8.63
2023-02-03T06:08:52.639Z,7.68
2023-02-03T06:13:56.224Z,9.65
2023-02-03T06:19:02.262Z,10.57
2023-02-03T06:24:04.573Z,10.82
2023-02-03T06:29:06.805Z,8.50
2023-02-03T06:34:09.447Z,9.98
2023-02-03T06:39:11.610Z,9.65
2023-02-03T06:44:13.815Z,8.85
2023-02-03T06:49:17.355Z,8.32
2023-02-03T06:54:19.544Z,8.95
2023-02-03T06:59:22.391Z,9.25
2023-02-03T07:04:24.629Z,9.27
2023-02-03T07:09:26.801Z,9.48
2023-02-03T07:14:31.072Z,9.70
2023-02-03T07:19:33.373Z,8.80
2023-02-03T07:24:35.552Z,8.35
2023-02-03T07:29:37.818Z,9.20
2023-02-03T07:34:39.987Z,10.68
2023-02-03T07:39:42.719Z,11.13
2023-02-03T07:44:45.620Z,9.98
2023-02-03T07:49:47.842Z,11.10
2023-02-03T07:54:50.077Z,10.38
2023-02-03T07:59:52.281Z,9.93
2023-02-03T08:04:54.664Z,12.23
2023-02-03T08:09:56.886Z,8.50
2023-02-03T08:14:59.334Z,11.52
2023-02-03T08:20:01.911Z,13.57
2023-02-03T08:25:04.491Z,16.45
2023-02-03T08:30:08.058Z,16.73
2023-02-03T08:35:10.335Z,11.85
2023-02-03T08:40:13.304Z,9.00
2023-02-03T08:45:15.474Z,9.88
2023-02-03T08:50:17.625Z,9.25
2023-02-03T08:55:19.731Z,10.93
2023-02-03T09:00:22.004Z,10.43
2023-02-03T09:05:24.472Z,10.30
2023-02-03T09:10:27.413Z,10.20
2023-02-03T09:15:29.838Z,10.73
2023-02-03T09:20:32.613Z,9.65
2023-02-03T09:25:35.520Z,9.50
2023-02-03T09:30:37.640Z,8.52
2023-02-03T09:35:40.696Z,10.07
2023-02-03T09:40:43.464Z,8.75
2023-02-03T09:45:45.784Z,8.93
2023-02-03T09:50:49.553Z,9.45
2023-02-03T09:55:51.803Z,8.25
2023-02-03T10:00:56.405Z,8.30
2023-02-03T10:06:28.368Z,8.05
2023-02-03T10:16:38.034Z,6.53
2023-02-03T10:22:06.479Z,4.97
2023-02-03T10:27:19.865Z,5.45
2023-02-03T10:32:24.582Z,4.05
2023-02-03T10:37:31.635Z,3.92
2023-02-03T10:42:53.297Z,4.72
2023-02-03T10:47:56.023Z,4.32
2023-02-03T10:53:17.091Z,4.45
2023-02-03T10:58:26.707Z,4.18
2023-02-03T11:03:29.633Z,4.75
2023-02-03T11:08:32.567Z,4.75
2023-02-03T11:13:34.937Z,4.85
2023-02-03T11:18:37.168Z,4.80
2023-02-03T11:23:45.200Z,4.80
2023-02-03T11:28:48.897Z,4.90
2023-02-03T11:33:56.744Z,4.65
2023-02-03T11:39:17.987Z,4.32
2023-02-03T11:44:24.622Z,4.32
2023-02-03T11:49:45.611Z,4.72
2023-02-03T11:55:05.049Z,5.00
2023-02-03T12:00:31.323Z,4.68
2023-02-03T12:05:40.483Z,4.47
2023-02-03T12:11:04.847Z,4.85
2023-02-03T12:16:16.276Z,4.25
2023-02-03T12:21:29.317Z,5.47
2023-02-03T12:26:34.275Z,4.72
2023-02-03T12:31:41.715Z,4.47
2023-02-03T12:42:04.309Z,5.20
2023-02-03T12:47:12.415Z,4.68
2023-02-03T12:52:19.281Z,5.93
2023-02-03T12:57:39.894Z,4.68
2023-02-03T13:03:01.049Z,5.10
2023-02-03T13:08:08.156Z,4.70
2023-02-03T13:13:12.711Z,4.40
2023-02-03T13:18:26.711Z,4.80
2023-02-03T13:23:29.323Z,5.28
2023-02-03T13:28:31.514Z,4.35
2023-02-03T13:33:52.500Z,4.78
2023-02-03T13:39:13.383Z,4.40
2023-02-03T13:44:17.047Z,4.55
2023-02-03T13:49:23.773Z,5.45
2023-02-03T13:54:25.917Z,3.90
2023-02-03T13:59:41.256Z,5.25
2023-02-03T14:04:46.629Z,5.32
2023-02-03T14:10:06.305Z,4.97
2023-02-03T14:15:32.361Z,4.50
2023-02-03T14:20:38.288Z,4.95
2023-02-03T14:25:43.534Z,4.65
2023-02-03T14:31:08.476Z,4.07
2023-02-03T14:36:26.228Z,5.38
2023-02-03T14:41:44.117Z,5.35
2023-02-03T14:47:01.335Z,5.63
2023-02-03T14:52:12.473Z,4.63
2023-02-03T14:57:17.399Z,5.28
2023-02-03T15:02:21.406Z,5.43
2023-02-03T15:07:44.898Z,5.50
2023-02-03T15:12:48.932Z,6.22
2023-02-03T15:17:52.192Z,5.75
2023-02-03T15:22:54.618Z,5.60
2023-02-03T15:28:10.390Z,5.55
2023-02-03T15:33:17.266Z,5.00
2023-02-03T15:38:25.124Z,7.30
2023-02-03T15:43:36.469Z,7.32
2023-02-03T15:49:06.240Z,5.57
2023-02-03T15:54:31.440Z,5.45
2023-02-03T15:59:37.092Z,5.00
2023-02-03T16:04:39.340Z,5.55
2023-02-03T16:09:41.978Z,5.18
2023-02-03T16:14:44.703Z,5.47
2023-02-03T16:19:51.758Z,4.95
2023-02-03T16:24:53.915Z,5.00
2023-02-03T16:30:34.814Z,4.93
2023-02-03T16:35:55.208Z,6.07
2023-02-03T16:41:16.013Z,5.90
2023-02-03T16:46:36.426Z,6.00
2023-02-03T16:51:40.303Z,5.35
2023-02-03T16:56:42.504Z,7.40
2023-02-03T17:01:45.893Z,5.95
2023-02-03T17:06:51.460Z,5.90
2023-02-03T17:11:53.659Z,6.70
2023-02-03T17:16:56.321Z,6.85
2023-02-03T17:21:58.533Z,4.85
2023-02-03T17:27:00.735Z,5.97
2023-02-03T17:32:05.631Z,5.72
2023-02-03T17:37:08.098Z,5.40
2023-02-03T17:58:10.101Z,5.20
2023-02-03T18:03:12.181Z,5.47
2023-02-03T18:08:20.302Z,5.30
2023-02-03T18:13:26.997Z,5.15
2023-02-03T18:18:32.063Z,5.30
2023-02-03T18:23:34.151Z,5.40
2023-02-03T18:28:39.633Z,6.63
2023-02-03T18:33:48.023Z,4.47
2023-02-03T18:38:50.234Z,6.13
2023-02-03T18:43:55.722Z,5.75
2023-02-03T18:49:05.502Z,5.43
2023-02-03T18:54:07.723Z,5.13
2023-02-03T18:59:12.829Z,6.40
2023-02-03T19:04:14.984Z,6.95
2023-02-03T19:14:41.905Z,6.32
2023-02-03T19:19:48.214Z,6.38
2023-02-03T19:24:54.018Z,6.32
2023-02-03T19:29:56.250Z,6.85
2023-02-03T19:35:00.990Z,7.50
2023-02-03T19:40:05.920Z,8.05
2023-02-03T19:45:10.578Z,6.70
2023-02-03T19:50:13.085Z,7.05
2023-02-03T19:55:16.350Z,7.35
2023-02-03T20:00:18.805Z,7.10
2023-02-03T20:05:21.845Z,6.38
2023-02-03T20:10:26.651Z,6.68
2023-02-03T20:15:28.892Z,6.55
2023-02-03T20:20:31.622Z,6.72
2023-02-03T20:25:33.991Z,7.18
2023-02-03T20:30:37.017Z,6.05
2023-02-03T20:35:39.524Z,4.90
2023-02-03T20:40:43.493Z,6.45
2023-02-03T20:45:46.955Z,6.75
2023-02-03T20:50:50.480Z,7.60
2023-02-03T20:55:54.170Z,6.72
2023-02-03T21:00:59.213Z,7.07
2023-02-03T21:06:01.628Z,6.40
2023-02-03T21:11:10.716Z,7.38
2023-02-03T21:16:16.702Z,4.95
2023-02-03T21:21:29.637Z,4.80
2023-02-03T21:26:34.051Z,6.07
2023-02-03T21:31:37.701Z,6.57
2023-02-03T21:36:40.526Z,6.25
2023-02-03T21:41:42.756Z,6.15
2023-02-03T21:46:44.921Z,6.50
2023-02-03T21:51:47.431Z,6.88
2023-02-03T21:56:50.982Z,6.57
2023-02-03T22:01:56.023Z,7.10
2023-02-03T22:06:58.186Z,5.47
2023-02-03T22:12:01.378Z,5.78
2023-02-03T22:17:03.787Z,5.95
2023-02-03T22:22:06.496Z,5.63
2023-02-03T22:27:08.616Z,5.95
2023-02-03T22:32:10.796Z,5.85
2023-02-03T22:37:12.999Z,6.35
2023-02-03T22:42:16.310Z,6.30
2023-02-03T22:47:18.470Z,6.38
2023-02-03T22:52:20.643Z,6.57
2023-02-03T22:57:22.779Z,7.18
2023-02-03T23:02:24.965Z,6.07
2023-02-03T23:07:27.247Z,5.45
2023-02-03T23:12:29.409Z,5.82
2023-02-03T23:17:31.654Z,6.15
2023-02-03T23:22:33.905Z,5.60
2023-02-03T23:27:36.318Z,5.93
2023-02-03T23:32:38.570Z,6.22
2023-02-03T23:37:40.704Z,5.13
2023-02-03T23:42:42.924Z,7.05
2023-02-03T23:47:45.587Z,6.25
2023-02-03T23:52:48.375Z,6.65
2023-02-03T23:57:50.719Z,7.00
